Time;durP1;ratioP1;P1;durP2;ratioP2;P2;SDS_P1;SDS_P2;PMS_P1;PMS_P2;Temp;Humidity;BMP_temperature;BMP_pressure;BME280_temperature;BME280_humidity;BME280_pressure;Samples;Min_cycle;Max_cycle;Signal;HPM_P1;HPM_P2
2021/04/05 00:02:11;;;;;;;1.33;1.00;;;17.00;55.40;;;;;;5112038;28;20093;-36
2021/04/05 00:04:37;;;;;;;1.33;1.10;;;17.00;55.40;;;;;;5124951;28;20028;-36
2021/04/05 00:07:04;;;;;;;1.20;0.98;;;17.00;55.30;;;;;;5124955;28;20028;-36
2021/04/05 00:09:30;;;;;;;1.20;1.10;;;17.00;55.30;;;;;;5125027;28;20052;-36
2021/04/05 00:11:59;;;;;;;1.70;1.30;;;17.00;55.30;;;;;;5129757;27;20027;-36
2021/04/05 00:14:26;;;;;;;1.45;1.08;;;17.00;55.00;;;;;;5145247;27;20038;-36
2021/04/05 00:16:52;;;;;;;1.38;1.13;;;17.00;55.30;;;;;;5132869;27;20046;-36
2021/04/05 00:19:19;;;;;;;0.85;0.80;;;17.00;55.20;;;;;;5127349;27;20027;-36
2021/04/05 00:21:45;;;;;;;1.70;1.20;;;17.00;55.10;;;;;;5124997;28;20032;-36
2021/04/05 00:24:12;;;;;;;1.88;0.98;;;17.00;55.20;;;;;;5124360;28;20028;-36
2021/04/05 00:26:38;;;;;;;1.48;1.00;;;17.00;55.20;;;;;;5124674;28;20030;-35
2021/04/05 00:29:04;;;;;;;1.45;1.02;;;17.00;55.00;;;;;;5124606;28;20023;-35
2021/04/05 00:31:30;;;;;;;1.10;1.00;;;17.00;55.10;;;;;;5118581;28;20032;-35
2021/04/05 00:33:57;;;;;;;1.17;1.08;;;17.00;55.10;;;;;;5142849;27;20034;-35
2021/04/05 00:36:23;;;;;;;1.55;1.20;;;16.90;55.40;;;;;;5145382;27;20428;-35
2021/04/05 00:38:49;;;;;;;1.90;1.10;;;16.90;55.10;;;;;;5145170;27;20035;-35
2021/04/05 00:41:15;;;;;;;1.05;0.93;;;16.90;55.40;;;;;;5126580;27;20015;-36
2021/04/05 00:43:46;;;;;;;1.42;1.20;;;16.90;55.50;;;;;;5124823;27;20036;-36
2021/04/05 00:46:13;;;;;;;1.25;0.95;;;16.90;55.70;;;;;;5124440;28;20042;-35
2021/04/05 00:48:39;;;;;;;3.25;1.30;;;16.90;55.70;;;;;;5124325;28;20520;-36
2021/04/05 00:51:09;;;;;;;1.35;1.00;;;16.90;55.70;;;;;;5106304;28;20031;-36
2021/04/05 00:53:38;;;;;;;1.73;1.08;;;16.90;55.50;;;;;;5139336;27;20050;-35
2021/04/05 00:56:04;;;;;;;1.50;1.05;;;16.90;55.50;;;;;;5144773;27;20389;-36
2021/04/05 00:58:31;;;;;;;1.38;1.17;;;16.90;55.50;;;;;;5126026;27;20031;-36
2021/04/05 01:01:01;;;;;;;1.48;1.15;;;16.90;55.60;;;;;;5125734;27;20061;-36
2021/04/05 01:03:29;;;;;;;1.33;0.95;;;16.90;55.50;;;;;;5124439;28;20433;-35
2021/04/05 01:06:12;;;;;;;1.10;1.00;;;16.90;55.50;;;;;;5123922;28;20019;-35
2021/04/05 01:08:39;;;;;;;1.30;1.00;;;16.90;55.60;;;;;;5123775;28;20035;-36
2021/04/05 01:11:05;;;;;;;1.97;1.00;;;16.90;55.60;;;;;;5105933;28;20557;-36
2021/04/05 01:13:31;;;;;;;1.42;1.23;;;16.90;55.50;;;;;;5123730;28;20032;-36
2021/04/05 01:15:57;;;;;;;1.38;1.25;;;16.90;55.50;;;;;;5123475;28;20095;-36
2021/04/05 01:18:24;;;;;;;2.00;1.17;;;16.80;55.40;;;;;;5124129;28;20077;-35
2021/04/05 01:20:50;;;;;;;1.67;1.20;;;16.80;55.50;;;;;;5123997;28;20034;-36
2021/04/05 01:23:17;;;;;;;1.55;1.10;;;16.80;55.50;;;;;;5111732;28;20032;-35
2021/04/05 01:25:43;;;;;;;1.10;1.00;;;16.80;56.00;;;;;;5103385;28;20026;-36
2021/04/05 01:28:09;;;;;;;1.80;1.10;;;16.80;55.60;;;;;;5103344;28;20050;-35
2021/04/05 01:30:38;;;;;;;1.83;1.10;;;16.80;55.50;;;;;;5103596;28;20052;-36
2021/04/05 01:33:14;;;;;;;1.42;1.02;;;16.80;55.60;;;;;;5103483;28;20036;-35
2021/04/05 01:35:43;;;;;;;1.58;1.20;;;16.80;55.70;;;;;;5140668;28;20061;-36
2021/04/05 01:38:10;;;;;;;1.65;1.17;;;16.80;55.50;;;;;;5144313;28;20831;-35
2021/04/05 01:40:44;;;;;;;1.70;1.13;;;16.80;55.70;;;;;;5144322;28;20154;-36
2021/04/05 01:43:11;;;;;;;1.42;1.15;;;16.70;55.60;;;;;;5130930;28;20035;-36
2021/04/05 01:45:37;;;;;;;1.65;1.00;;;16.70;55.70;;;;;;5127513;28;20027;-38
2021/04/05 01:48:04;;;;;;;1.48;1.23;;;16.70;55.70;;;;;;5128060;28;20023;-36
2021/04/05 01:50:31;;;;;;;1.63;1.30;;;16.70;55.80;;;;;;5109603;28;20039;-36
2021/04/05 01:53:02;;;;;;;1.13;1.02;;;16.70;55.80;;;;;;5118294;28;20024;-36
2021/04/05 01:55:29;;;;;;;2.40;1.10;;;16.70;55.80;;;;;;5107048;28;20043;-36
2021/04/05 01:57:55;;;;;;;2.05;1.20;;;16.60;55.90;;;;;;5088861;28;20036;-36
2021/04/05 02:00:24;;;;;;;1.73;1.33;;;16.60;56.00;;;;;;5107130;28;20028;-35
2021/04/05 02:02:50;;;;;;;1.80;1.20;;;16.60;56.00;;;;;;5107070;28;20028;-36
2021/04/05 02:05:17;;;;;;;1.23;1.13;;;16.60;55.90;;;;;;5122432;28;20043;-35
2021/04/05 02:07:43;;;;;;;1.63;1.40;;;16.60;56.00;;;;;;5122624;28;20023;-36
2021/04/05 02:10:22;;;;;;;1.90;1.33;;;16.60;56.00;;;;;;5106815;28;20587;-36
2021/04/05 02:12:48;;;;;;;1.75;1.40;;;16.60;56.00;;;;;;5124872;27;20027;-35
2021/04/05 02:15:15;;;;;;;1.92;1.27;;;16.60;56.00;;;;;;5108546;28;20024;-36
2021/04/05 02:17:43;;;;;;;1.63;1.27;;;16.60;56.10;;;;;;5115740;28;20111;-35
2021/04/05 02:20:09;;;;;;;;;;;16.60;56.00;;;;;;5089512;28;20034;-35
2021/04/05 02:22:53;;;;;;;2.50;1.38;;;16.50;56.00;;;;;;5113278;28;20362;-35
2021/04/05 02:25:20;;;;;;;2.05;1.17;;;16.50;56.20;;;;;;5127208;28;20048;-35
2021/04/05 02:27:50;;;;;;;2.10;1.30;;;16.50;56.10;;;;;;5129371;27;20091;-35
2021/04/05 02:30:24;;;;;;;1.95;1.30;;;16.50;56.10;;;;;;5126793;28;20038;-35
2021/04/05 02:32:55;;;;;;;1.45;1.25;;;16.40;56.10;;;;;;5126585;28;20020;-35
2021/04/05 02:35:25;;;;;;;1.63;1.33;;;16.40;56.30;;;;;;5127093;28;20019;-35
2021/04/05 02:37:52;;;;;;;1.50;1.20;;;16.40;56.20;;;;;;5126637;28;20142;-35
2021/04/05 02:40:19;;;;;;;1.42;1.30;;;16.40;56.30;;;;;;5108788;27;20031;-36
2021/04/05 02:42:45;;;;;;;3.08;1.38;;;16.40;56.30;;;;;;5147526;27;20069;-35
2021/04/05 02:45:12;;;;;;;1.33;1.13;;;16.40;56.30;;;;;;5112072;27;20023;-35
2021/04/05 02:47:39;;;;;;;2.35;1.13;;;16.40;56.40;;;;;;5136579;27;20148;-36
2021/04/05 02:50:06;;;;;;;1.70;1.33;;;16.40;56.40;;;;;;5126753;28;20087;-36
2021/04/05 02:52:34;;;;;;;1.65;1.15;;;16.40;56.40;;;;;;5102665;28;20025;-35
2021/04/05 02:55:01;;;;;;;1.98;1.30;;;16.30;56.40;;;;;;5120846;28;20039;-35
2021/04/05 02:57:27;;;;;;;1.67;1.40;;;16.30;56.30;;;;;;5087599;28;20036;-35
2021/04/05 02:59:53;;;;;;;1.58;1.25;;;16.30;56.30;;;;;;5105980;28;20028;-35
2021/04/05 03:02:20;;;;;;;1.80;1.30;;;16.30;56.40;;;;;;5105922;28;20449;-36
2021/04/05 03:04:46;;;;;;;2.15;1.35;;;16.30;56.40;;;;;;5121904;28;20024;-35
2021/04/05 03:07:12;;;;;;;1.67;1.30;;;16.30;56.40;;;;;;5104376;28;20034;-36
2021/04/05 03:09:39;;;;;;;3.10;1.63;;;16.20;56.40;;;;;;5105684;28;20047;-35
2021/04/05 03:12:06;;;;;;;2.42;1.60;;;16.20;56.40;;;;;;5124451;27;20028;-35
2021/04/05 03:14:32;;;;;;;2.88;1.38;;;16.20;56.50;;;;;;5130011;27;20060;-35
2021/04/05 03:16:58;;;;;;;1.63;1.42;;;16.20;56.50;;;;;;5112734;27;20027;-36
2021/04/05 03:19:24;;;;;;;3.50;1.77;;;16.20;56.50;;;;;;5128056;27;20052;-40
2021/04/05 03:21:50;;;;;;;1.83;1.45;;;16.20;56.60;;;;;;5111008;27;20023;-35
2021/04/05 03:24:16;;;;;;;1.83;1.23;;;16.20;56.60;;;;;;5107753;28;20055;-36
2021/04/05 03:26:42;;;;;;;2.25;1.48;;;16.10;56.60;;;;;;5107812;28;20019;-36
2021/04/05 03:29:10;;;;;;;2.20;1.50;;;16.10;56.60;;;;;;5107522;28;20034;-35
2021/04/05 03:31:37;;;;;;;2.03;1.40;;;16.10;56.70;;;;;;5113987;27;20198;-35
2021/04/05 03:34:25;;;;;;;1.55;1.45;;;16.10;56.70;;;;;;5128137;27;20023;-35
2021/04/05 03:36:55;;;;;;;1.65;1.38;;;16.10;56.90;;;;;;5146350;27;20799;-35
2021/04/05 03:39:21;;;;;;;2.05;1.50;;;16.00;56.80;;;;;;5121180;28;20051;-35
2021/04/05 03:42:02;;;;;;;1.83;1.38;;;16.00;56.90;;;;;;5125630;28;20027;-36
2021/04/05 03:44:59;;;;;;;1.83;1.30;;;16.00;57.50;;;;;;5107062;28;20033;-35
2021/04/05 03:48:09;;;;;;;2.03;1.33;;;16.00;56.90;;;;;;5091501;28;20031;-35
2021/04/05 03:50:39;;;;;;;2.05;1.45;;;16.00;57.00;;;;;;5107567;28;20084;-35
2021/04/05 03:53:11;;;;;;;1.65;1.30;;;15.90;57.00;;;;;;5096920;28;20020;-35
2021/04/05 03:55:38;;;;;;;2.17;1.35;;;15.90;57.10;;;;;;5104911;28;20050;-36
2021/04/05 03:58:04;;;;;;;1.92;1.30;;;15.90;57.10;;;;;;5086699;28;20036;-35
2021/04/05 04:00:31;;;;;;;2.63;1.52;;;15.90;57.10;;;;;;5086666;28;20091;-36
2021/04/05 04:02:57;;;;;;;2.92;1.52;;;15.90;57.20;;;;;;5086537;28;20044;-35
2021/04/05 04:10:25;;;;;;;1.70;1.38;;;15.80;57.20;;;;;;5083762;28;20052;-36
2021/04/05 04:12:52;;;;;;;2.63;1.65;;;15.80;57.20;;;;;;5063087;28;20776;-35
2021/04/05 04:15:18;;;;;;;2.50;1.33;;;15.80;57.30;;;;;;5062753;28;20093;-35
2021/04/05 04:17:44;;;;;;;3.00;1.40;;;15.80;57.40;;;;;;5086578;28;20032;-35
2021/04/05 04:20:15;;;;;;;2.65;2.00;;;15.80;57.40;;;;;;5069833;28;20028;-35
2021/04/05 04:22:43;;;;;;;3.78;1.50;;;15.70;57.50;;;;;;5075565;28;20578;-35
2021/04/05 04:25:09;;;;;;;;;;;15.70;57.50;;;;;;5064593;28;20025;-35
2021/04/05 04:27:36;;;;;;;2.72;1.35;;;15.70;57.50;;;;;;5064038;28;19915;-35
2021/04/05 04:30:02;;;;;;;1.50;1.30;;;15.70;57.60;;;;;;5081492;28;20024;-35
2021/04/05 04:32:28;;;;;;;2.30;1.47;;;15.70;57.50;;;;;;5083910;28;20040;-34
2021/04/05 04:34:56;;;;;;;2.30;1.42;;;15.60;57.60;;;;;;5083907;28;20032;-35
2021/04/05 04:37:22;;;;;;;2.22;1.67;;;15.60;57.50;;;;;;5082585;28;20064;-35
2021/04/05 04:39:48;;;;;;;2.28;1.50;;;15.60;57.70;;;;;;5082048;28;20042;-35
2021/04/05 04:42:14;;;;;;;2.05;1.40;;;15.60;57.80;;;;;;5082553;28;20116;-35
2021/04/05 04:44:40;;;;;;;1.75;1.50;;;15.60;57.60;;;;;;5083911;28;20397;-35
2021/04/05 04:47:07;;;;;;;1.85;1.42;;;15.60;57.70;;;;;;5082283;28;20123;-35
2021/04/05 04:49:33;;;;;;;2.17;1.70;;;15.50;57.80;;;;;;5083150;28;20050;-35
2021/04/05 04:51:59;;;;;;;2.25;1.55;;;15.50;57.80;;;;;;5083868;28;20062;-35
2021/04/05 04:54:25;;;;;;;2.35;1.83;;;15.50;57.80;;;;;;5083696;28;20071;-35
2021/04/05 04:56:51;;;;;;;2.25;1.80;;;15.50;57.70;;;;;;5083598;28;20047;-35
2021/04/05 04:59:18;;;;;;;2.65;1.55;;;15.50;57.90;;;;;;5083368;28;20024;-35
2021/04/05 05:01:45;;;;;;;2.33;1.65;;;15.50;57.80;;;;;;5075017;28;20098;-35
2021/04/05 05:04:15;;;;;;;3.20;1.73;;;15.40;57.80;;;;;;5061775;28;20040;-35
2021/04/05 05:06:42;;;;;;;3.45;1.90;;;15.40;57.80;;;;;;5063478;28;20021;-36
2021/04/05 05:09:08;;;;;;;2.28;1.58;;;15.40;57.90;;;;;;5073233;28;20044;-35
2021/04/05 05:11:35;;;;;;;1.73;1.48;;;15.40;58.00;;;;;;5098033;28;20031;-35
2021/04/05 05:14:01;;;;;;;2.72;1.50;;;15.40;58.00;;;;;;5105687;28;20050;-35
2021/04/05 05:16:27;;;;;;;2.42;1.60;;;15.40;58.70;;;;;;5105792;28;20114;-35
2021/04/05 05:18:57;;;;;;;2.77;1.93;;;15.30;58.00;;;;;;5102680;28;20032;-35
2021/04/05 05:21:53;;;;;;;2.67;1.70;;;15.30;58.00;;;;;;5103812;28;20034;-35
2021/04/05 05:24:24;;;;;;;3.78;1.90;;;15.30;57.90;;;;;;5094840;28;20040;-35
2021/04/05 05:26:51;;;;;;;1.70;1.48;;;15.30;58.10;;;;;;5085448;28;20027;-35
2021/04/05 05:29:21;;;;;;;2.90;1.67;;;15.30;58.10;;;;;;5085054;28;20031;-35
2021/04/05 05:31:47;;;;;;;2.65;1.75;;;15.30;58.20;;;;;;5093553;28;20101;-35
2021/04/05 05:34:18;;;;;;;4.30;1.77;;;15.20;58.40;;;;;;5105401;28;20488;-35
2021/04/05 05:36:45;;;;;;;2.67;1.85;;;15.20;58.20;;;;;;5105592;28;20052;-35
2021/04/05 05:39:12;;;;;;;2.25;1.88;;;15.20;58.40;;;;;;5123620;28;20020;-35
2021/04/05 05:41:44;;;;;;;2.38;2.00;;;15.20;58.40;;;;;;5123755;28;20112;-35
2021/04/05 05:44:18;;;;;;;2.40;1.80;;;15.20;58.30;;;;;;5137930;28;20020;-35
2021/04/05 05:46:45;;;;;;;2.60;1.90;;;15.20;58.50;;;;;;5123885;28;20091;-35
2021/04/05 05:49:15;;;;;;;2.83;1.95;;;15.20;58.40;;;;;;5088455;28;20496;-36
2021/04/05 05:51:59;;;;;;;2.67;1.98;;;15.10;58.60;;;;;;5123802;28;20046;-35
2021/04/05 05:54:47;;;;;;;2.72;1.92;;;15.10;58.60;;;;;;5085056;28;20078;-35
2021/04/05 05:57:16;;;;;;;2.80;2.03;;;15.10;58.40;;;;;;5103149;28;20024;-35
2021/04/05 06:00:03;;;;;;;2.70;2.00;;;15.10;58.60;;;;;;5084867;28;20036;-35
2021/04/05 06:02:51;;;;;;;2.65;2.20;;;15.00;58.70;;;;;;5116083;28;20020;-35
2021/04/05 06:05:44;;;;;;;2.63;1.90;;;15.10;58.50;;;;;;5105352;28;20038;-35
2021/04/05 06:08:35;;;;;;;2.70;1.95;;;15.00;58.70;;;;;;5123659;28;20026;-35
2021/04/05 06:11:23;;;;;;;3.58;2.35;;;15.00;58.70;;;;;;5090236;28;20036;-35
2021/04/05 06:14:03;;;;;;;2.35;2.00;;;15.00;59.30;;;;;;5089144;28;20061;-35
2021/04/05 06:16:36;;;;;;;2.40;1.88;;;15.00;58.60;;;;;;5104993;28;20027;-35
2021/04/05 06:19:18;;;;;;;3.50;2.22;;;14.90;58.60;;;;;;5123350;28;20100;-35
2021/04/05 06:21:57;;;;;;;3.88;2.00;;;14.90;58.70;;;;;;5104064;28;20516;-36
2021/04/05 06:24:25;;;;;;;3.05;2.33;;;14.90;58.80;;;;;;5103227;28;20032;-35
2021/04/05 06:26:58;;;;;;;2.75;2.10;;;14.90;58.90;;;;;;5085001;28;20024;-35
2021/04/05 06:29:41;;;;;;;2.72;2.15;;;14.90;58.90;;;;;;5085821;28;20110;-36
2021/04/05 06:32:16;;;;;;;3.13;2.20;;;14.90;58.90;;;;;;5101112;27;20028;-35
2021/04/05 06:35:15;;;;;;;3.60;2.42;;;14.80;58.90;;;;;;5129046;27;20023;-36
2021/04/05 06:37:51;;;;;;;4.20;2.58;;;14.80;58.90;;;;;;5128026;27;20396;-35
2021/04/05 06:40:18;;;;;;;5.95;2.78;;;14.80;58.90;;;;;;5128756;27;20035;-40
2021/04/05 06:42:52;;;;;;;3.30;2.57;;;14.80;59.20;;;;;;5129121;27;20028;-35
2021/04/05 06:45:40;;;;;;;3.97;2.40;;;14.80;59.20;;;;;;5129441;27;20030;-35
2021/04/05 06:48:31;;;;;;;4.50;2.45;;;14.80;59.10;;;;;;5129159;27;20031;-35
2021/04/05 06:51:25;;;;;;;5.03;2.30;;;14.80;59.10;;;;;;5131528;27;20023;-35
2021/04/05 06:54:14;;;;;;;2.78;2.40;;;14.70;59.20;;;;;;5111304;27;20166;-35
2021/04/05 06:56:43;;;;;;;;;;;14.70;59.20;;;;;;5129174;27;20076;-38
2021/04/05 06:59:33;;;;;;;3.58;2.38;;;14.70;59.20;;;;;;5147103;27;19904;-35
2021/04/05 07:02:05;;;;;;;3.60;2.45;;;14.70;59.40;;;;;;5138274;27;20054;-35
2021/04/05 07:04:47;;;;;;;2.92;2.42;;;14.60;59.50;;;;;;5147128;27;20031;-35
2021/04/05 07:07:22;;;;;;;3.83;2.65;;;14.60;59.40;;;;;;5146834;27;20031;-35
2021/04/05 07:09:49;;;;;;;4.22;2.85;;;14.60;59.50;;;;;;5124657;28;20054;-35
2021/04/05 07:12:34;;;;;;;;;;;14.60;59.50;;;;;;5106388;28;20115;-35
2021/04/05 07:15:22;;;;;;;3.72;2.40;;;14.50;59.70;;;;;;5105815;28;19915;-35
2021/04/05 07:17:57;;;;;;;5.10;3.13;;;14.50;59.60;;;;;;5105561;28;20028;-35
2021/04/05 07:20:26;;;;;;;4.68;2.83;;;14.50;59.60;;;;;;5105347;28;20024;-35
2021/04/05 07:23:11;;;;;;;3.78;2.60;;;14.50;59.80;;;;;;5095563;28;20028;-35
2021/04/05 07:25:49;;;;;;;3.47;2.72;;;14.50;59.60;;;;;;5117916;28;20016;-35
2021/04/05 07:28:37;;;;;;;5.07;3.13;;;14.50;59.80;;;;;;5117802;28;20503;-35
2021/04/05 07:31:22;;;;;;;4.80;3.20;;;14.50;59.80;;;;;;5087921;28;20044;-35
2021/04/05 07:33:48;;;;;;;4.20;3.10;;;14.40;59.80;;;;;;5109511;28;20027;-35
2021/04/05 07:36:25;;;;;;;4.47;3.13;;;14.40;59.80;;;;;;5087168;28;20028;-35
2021/04/05 07:39:00;;;;;;;4.43;3.00;;;14.40;59.80;;;;;;5105412;28;20048;-35
2021/04/05 07:41:33;;;;;;;4.30;3.10;;;14.40;59.90;;;;;;5103309;28;20028;-35
2021/04/05 07:44:11;;;;;;;4.25;3.10;;;14.40;59.80;;;;;;5105381;28;20058;-35
2021/04/05 07:46:54;;;;;;;3.50;2.80;;;14.40;59.80;;;;;;5103787;28;20054;-35
2021/04/05 07:49:33;;;;;;;5.35;3.22;;;14.40;59.70;;;;;;5109106;28;20763;-35
2021/04/05 07:52:03;;;;;;;4.00;2.97;;;14.40;59.80;;;;;;5122547;28;20036;-35
2021/04/05 07:54:34;;;;;;;5.45;3.00;;;14.30;59.80;;;;;;5105123;28;20020;-37
2021/04/05 07:57:10;;;;;;;5.55;3.13;;;14.30;60.00;;;;;;5086663;28;20647;-35
2021/04/05 08:00:10;;;;;;;4.30;3.33;;;14.30;60.00;;;;;;5103784;28;20028;-35
2021/04/05 08:03:05;;;;;;;4.88;3.38;;;14.30;60.10;;;;;;5101290;28;20043;-35
2021/04/05 08:05:46;;;;;;;3.15;2.53;;;14.30;60.10;;;;;;5124208;28;20072;-35
2021/04/05 08:08:45;;;;;;;4.20;3.47;;;14.20;60.20;;;;;;5124220;28;20027;-35
2021/04/05 08:11:33;;;;;;;3.85;3.17;;;14.20;60.20;;;;;;5123575;28;20850;-35
2021/04/05 08:14:10;;;;;;;7.20;3.40;;;14.20;60.10;;;;;;5110839;28;20036;-35
2021/04/05 08:16:59;;;;;;;4.07;3.35;;;14.20;60.30;;;;;;5104436;28;20046;-35
2021/04/05 08:19:31;;;;;;;4.40;3.20;;;14.20;60.30;;;;;;5104409;28;20035;-35
2021/04/05 08:22:19;;;;;;;4.93;3.08;;;14.20;60.30;;;;;;5105432;28;20864;-35
2021/04/05 08:25:04;;;;;;;3.83;3.00;;;14.20;60.20;;;;;;5125085;28;20028;-35
2021/04/05 08:27:50;;;;;;;4.15;3.03;;;14.10;60.30;;;;;;5124821;28;20024;-35
2021/04/05 08:30:48;;;;;;;4.93;3.72;;;14.10;60.30;;;;;;5123353;28;20035;-35
2021/04/05 08:33:27;;;;;;;5.28;3.30;;;14.10;60.30;;;;;;5086555;28;20091;-35
2021/04/05 08:36:10;;;;;;;3.83;2.95;;;14.10;60.30;;;;;;5123432;28;20024;-35
2021/04/05 08:38:56;;;;;;;4.82;3.42;;;14.10;60.30;;;;;;5108495;28;20036;-35
2021/04/05 08:41:41;;;;;;;5.63;3.38;;;14.10;60.40;;;;;;5113699;28;20036;-35
2021/04/05 08:44:42;;;;;;;4.50;3.30;;;14.10;60.40;;;;;;5122295;28;20027;-35
2021/04/05 08:47:12;;;;;;;5.13;3.65;;;14.00;60.30;;;;;;5123229;28;20019;-35
2021/04/05 08:49:38;;;;;;;6.20;3.30;;;14.00;60.40;;;;;;5124318;28;20487;-35
2021/04/05 08:52:07;;;;;;;5.32;3.60;;;14.00;60.40;;;;;;5103026;28;20036;-35
2021/04/05 08:54:36;;;;;;;6.40;4.07;;;14.00;60.50;;;;;;5102812;28;20024;-35
2021/04/05 08:57:23;;;;;;;4.53;3.15;;;14.00;60.50;;;;;;5116172;28;20038;-35
2021/04/05 09:00:09;;;;;;;5.72;3.80;;;14.00;60.70;;;;;;5122567;28;20042;-35
2021/04/05 09:02:37;;;;;;;5.22;3.53;;;13.90;60.60;;;;;;5114167;28;20031;-35
2021/04/05 09:05:26;;;;;;;6.63;3.90;;;13.90;60.60;;;;;;5106032;28;20015;-35
2021/04/05 09:08:08;;;;;;;4.80;3.55;;;13.90;60.60;;;;;;5122666;28;20061;-35
2021/04/05 09:10:57;;;;;;;4.80;3.67;;;13.90;60.70;;;;;;5141492;27;20054;-35
2021/04/05 09:13:33;;;;;;;5.10;3.67;;;13.90;60.60;;;;;;5107400;28;20016;-35
2021/04/05 09:16:17;;;;;;;4.32;3.50;;;13.90;60.70;;;;;;5123715;28;20023;-35
2021/04/05 09:19:33;;;;;;;5.18;3.28;;;13.80;60.70;;;;;;5123879;28;20103;-35
2021/04/05 09:22:27;;;;;;;4.57;3.42;;;13.80;60.70;;;;;;5004501;28;20053;-35
2021/04/05 09:25:13;;;;;;;4.70;3.13;;;13.80;60.70;;;;;;5020997;28;20068;-36
2021/04/05 09:28:28;;;;;;;4.13;3.15;;;13.80;60.80;;;;;;5019162;28;20362;-35
2021/04/05 09:31:15;;;;;;;4.10;3.30;;;13.80;60.80;;;;;;5001306;28;20053;-35
2021/04/05 09:33:57;;;;;;;6.80;3.72;;;13.80;60.80;;;;;;5000944;28;20034;-35
2021/04/05 09:36:48;;;;;;;6.18;3.72;;;13.80;60.90;;;;;;5001332;28;20415;-35
2021/04/05 09:39:33;;;;;;;5.63;3.55;;;13.70;60.80;;;;;;5001140;28;20471;-35
2021/04/05 09:42:27;;;;;;;4.30;3.45;;;13.70;61.00;;;;;;4984554;28;20038;-35
2021/04/05 09:45:14;;;;;;;5.57;3.95;;;13.70;61.10;;;;;;4987207;28;20153;-35
2021/04/05 09:47:55;;;;;;;5.53;3.65;;;13.70;61.10;;;;;;5001141;28;20065;-35
2021/04/05 09:50:28;;;;;;;4.55;3.30;;;13.70;61.00;;;;;;5000681;28;20062;-35
2021/04/05 09:52:59;;;;;;;5.28;3.80;;;13.70;61.10;;;;;;4982698;28;20144;-35
2021/04/05 09:55:33;;;;;;;5.28;3.90;;;13.70;61.10;;;;;;4984857;28;20033;-35
2021/04/05 09:58:19;;;;;;;5.20;3.83;;;13.70;61.00;;;;;;5012317;28;20072;-35
2021/04/05 10:01:01;;;;;;;6.15;3.83;;;13.60;61.10;;;;;;5046134;28;20037;-35
2021/04/05 10:03:27;;;;;;;5.45;3.70;;;13.60;61.10;;;;;;5046928;28;20049;-35
2021/04/05 10:05:53;;;;;;;5.03;3.75;;;13.60;61.30;;;;;;5045139;28;20034;-35
2021/04/05 10:08:29;;;;;;;5.32;3.90;;;13.60;61.20;;;;;;5088985;28;20059;-35
2021/04/05 10:10:55;;;;;;;4.57;3.60;;;13.60;61.30;;;;;;5088474;28;20043;-35
2021/04/05 10:13:25;;;;;;;5.45;3.45;;;13.60;61.40;;;;;;5071859;28;20021;-35
2021/04/05 10:15:51;;;;;;;5.25;3.75;;;13.60;61.20;;;;;;5106849;28;20028;-34
2021/04/05 10:18:18;;;;;;;7.60;3.78;;;13.50;61.30;;;;;;5106605;28;20036;-35
2021/04/05 10:20:47;;;;;;;7.00;4.00;;;13.50;61.30;;;;;;5088545;28;20020;-35
2021/04/05 10:23:16;;;;;;;4.53;3.42;;;13.50;61.30;;;;;;5100123;28;20019;-36
2021/04/05 10:25:43;;;;;;;7.20;4.15;;;13.50;61.40;;;;;;5109051;28;20016;-36
2021/04/05 10:28:09;;;;;;;5.30;3.85;;;13.50;61.30;;;;;;5109011;28;20020;-35
2021/04/05 10:30:38;;;;;;;5.97;3.70;;;13.50;61.30;;;;;;5091540;28;20032;-35
2021/04/05 10:33:14;;;;;;;6.43;3.70;;;13.50;61.40;;;;;;5118347;27;20117;-35
2021/04/05 10:35:47;;;;;;;5.65;3.67;;;13.50;61.40;;;;;;5129426;27;20050;-35
2021/04/05 10:38:15;;;;;;;6.10;3.95;;;13.40;61.40;;;;;;5112338;27;20034;-35
2021/04/05 10:40:41;;;;;;;5.03;3.30;;;13.40;61.50;;;;;;5112374;27;20027;-35
2021/04/05 10:43:29;;;;;;;4.47;3.40;;;13.40;61.50;;;;;;5100061;28;20032;-35
2021/04/05 10:46:00;;;;;;;4.57;3.50;;;13.40;61.60;;;;;;5088099;28;20024;-35
2021/04/05 10:48:47;;;;;;;5.85;4.15;;;13.40;61.60;;;;;;5088532;28;20024;-35
2021/04/05 10:51:26;;;;;;;4.15;3.45;;;13.40;61.60;;;;;;5122829;27;20034;-35
2021/04/05 10:53:58;;;;;;;5.22;3.28;;;13.40;61.70;;;;;;5129515;27;20074;-35
2021/04/05 10:56:25;;;;;;;4.68;3.60;;;13.40;61.70;;;;;;5108279;28;20479;-35
2021/04/05 10:59:04;;;;;;;5.97;3.72;;;13.30;61.50;;;;;;5091320;28;20053;-35
2021/04/05 11:01:30;;;;;;;6.95;3.75;;;13.30;61.50;;;;;;5126427;28;20038;-35
2021/04/05 11:03:56;;;;;;;5.85;3.78;;;13.30;61.60;;;;;;5107850;28;20027;-35
2021/04/05 11:06:22;;;;;;;5.20;3.67;;;13.30;61.70;;;;;;5110612;28;20024;-35
2021/04/05 11:08:50;;;;;;;5.88;3.78;;;13.30;61.70;;;;;;5126124;28;20027;-35
2021/04/05 11:11:22;;;;;;;4.53;3.67;;;13.30;61.80;;;;;;5108129;28;20028;-40
2021/04/05 11:13:51;;;;;;;5.15;3.75;;;13.30;61.80;;;;;;5145746;27;20693;-35
2021/04/05 11:16:19;;;;;;;7.00;3.90;;;13.30;61.80;;;;;;5145777;27;20034;-35
2021/04/05 11:18:56;;;;;;;5.20;3.45;;;13.20;61.70;;;;;;5126902;27;20031;-35
2021/04/05 11:21:42;;;;;;;5.80;3.75;;;13.20;61.80;;;;;;5107774;28;20024;-35
2021/04/05 11:24:09;;;;;;;4.38;3.28;;;13.20;62.50;;;;;;5106214;28;20028;-35
2021/04/05 11:26:36;;;;;;;5.78;3.72;;;13.20;61.90;;;;;;5121141;28;20024;-35
2021/04/05 11:29:05;;;;;;;5.80;3.60;;;13.20;61.90;;;;;;5120956;28;20083;-38
2021/04/05 11:31:45;;;;;;;4.97;3.47;;;13.20;62.00;;;;;;5105370;28;20042;-35
2021/04/05 11:34:13;;;;;;;6.43;3.88;;;13.10;61.90;;;;;;5119007;28;20023;-35
2021/04/05 11:36:40;;;;;;;7.15;3.90;;;13.10;61.90;;;;;;5090681;28;20335;-35
2021/04/05 11:39:12;;;;;;;6.35;4.43;;;13.10;62.00;;;;;;5125811;28;20027;-35
2021/04/05 11:41:38;;;;;;;6.00;4.00;;;13.10;62.70;;;;;;5108537;27;20055;-35
2021/04/05 11:44:05;;;;;;;6.47;3.87;;;13.10;62.00;;;;;;5145705;27;20035;-35
2021/04/05 11:46:34;;;;;;;4.90;3.90;;;13.10;62.10;;;;;;5127568;27;20091;-35
2021/04/05 11:49:11;;;;;;;6.35;4.00;;;13.10;62.10;;;;;;5127757;27;20090;-35
2021/04/05 11:51:44;;;;;;;6.88;3.97;;;13.00;62.10;;;;;;5146121;27;20039;-35
2021/04/05 11:54:25;;;;;;;5.45;3.85;;;13.10;62.10;;;;;;5107487;28;20036;-35
2021/04/05 11:56:52;;;;;;;5.93;3.53;;;13.00;62.10;;;;;;5125458;28;20040;-35
2021/04/05 11:59:23;;;;;;;4.88;3.72;;;13.00;62.10;;;;;;5109418;27;20027;-35
2021/04/05 12:02:02;;;;;;;5.03;4.03;;;13.00;62.20;;;;;;5125329;28;20051;-34
2021/04/05 12:04:39;;;;;;;5.47;3.65;;;13.00;62.10;;;;;;5108461;28;20012;-35
2021/04/05 12:07:18;;;;;;;4.85;3.70;;;13.00;62.20;;;;;;5106843;28;20057;-35
2021/04/05 12:09:46;;;;;;;4.50;3.47;;;13.00;62.30;;;;;;5106508;28;20048;-34
2021/04/05 12:12:32;;;;;;;5.57;4.00;;;13.00;62.30;;;;;;5089461;28;20031;-35
2021/04/05 12:14:58;;;;;;;6.32;4.18;;;13.00;62.30;;;;;;5106891;28;20047;-35
2021/04/05 12:17:24;;;;;;;5.30;3.53;;;12.90;62.20;;;;;;5089682;28;20039;-35
2021/04/05 12:19:52;;;;;;;5.97;3.75;;;12.90;62.20;;;;;;5089872;28;20047;-34
2021/04/05 12:22:25;;;;;;;5.63;3.83;;;12.90;62.20;;;;;;5089836;28;20035;-35
2021/04/05 12:24:51;;;;;;;6.55;4.28;;;12.90;62.20;;;;;;5089606;28;20027;-35
2021/04/05 12:27:17;;;;;;;5.70;3.92;;;12.90;62.30;;;;;;5105326;28;20053;-35
2021/04/05 12:29:44;;;;;;;5.80;3.75;;;12.90;62.30;;;;;;5106662;28;20080;-35
2021/04/05 12:32:17;;;;;;;6.55;4.13;;;12.90;62.40;;;;;;5095307;28;20051;-35
2021/04/05 12:34:43;;;;;;;5.07;3.53;;;12.90;62.30;;;;;;5086407;28;20032;-35
2021/04/05 12:37:14;;;;;;;6.18;3.72;;;12.90;62.30;;;;;;5085750;28;20112;-35
2021/04/05 12:39:41;;;;;;;4.28;3.30;;;12.90;62.40;;;;;;5086176;28;20025;-36
2021/04/05 12:42:11;;;;;;;5.90;3.70;;;12.90;62.30;;;;;;5096422;27;20060;-35
2021/04/05 12:44:38;;;;;;;6.65;3.60;;;12.90;62.40;;;;;;5126724;27;20544;-35
2021/04/05 12:47:09;;;;;;;6.80;4.18;;;12.90;62.40;;;;;;5109471;27;20035;-35
2021/04/05 12:49:37;;;;;;;6.15;3.97;;;12.90;62.40;;;;;;5126794;27;20031;-35
2021/04/05 12:52:05;;;;;;;6.57;4.32;;;12.80;62.30;;;;;;5107645;27;20049;-35
2021/04/05 12:54:32;;;;;;;5.32;3.88;;;12.90;62.50;;;;;;5106158;28;20032;-35
2021/04/05 12:57:00;;;;;;;5.78;3.63;;;12.90;62.50;;;;;;5105779;28;20059;-35
2021/04/05 12:59:27;;;;;;;6.43;3.83;;;12.90;62.50;;;;;;5124102;28;20207;-35
2021/04/05 13:01:56;;;;;;;5.00;3.28;;;12.90;62.40;;;;;;5132346;27;20040;-35
2021/04/05 13:04:24;;;;;;;5.80;3.97;;;12.80;62.50;;;;;;5089284;28;20043;-35
2021/04/05 13:07:10;;;;;;;4.30;3.50;;;12.90;62.50;;;;;;5088939;28;20047;-35
2021/04/05 13:09:40;;;;;;;5.72;3.80;;;12.90;62.40;;;;;;5123897;28;20063;-35
2021/04/05 13:12:41;;;;;;;6.60;4.07;;;12.90;62.60;;;;;;5129077;28;20030;-35
2021/04/05 13:15:21;;;;;;;4.60;3.45;;;12.90;62.40;;;;;;5111185;27;20039;-35
2021/04/05 13:17:53;;;;;;;5.30;3.72;;;12.90;62.50;;;;;;5126235;28;20043;-35
2021/04/05 13:20:28;;;;;;;4.97;3.53;;;12.90;62.50;;;;;;5123287;28;20028;-35
2021/04/05 13:23:01;;;;;;;4.80;3.80;;;12.90;62.50;;;;;;5089558;28;20027;-35
2021/04/05 13:25:49;;;;;;;6.03;4.00;;;12.90;62.50;;;;;;5105843;28;20026;-35